Time;durP1;ratioP1;P1;durP2;ratioP2;P2;SDS_P1;SDS_P2;PMS_P1;PMS_P2;Temp;Humidity;BMP_temperature;BMP_pressure;BME280_temperature;BME280_humidity;BME280_pressure;Samples;Min_cycle;Max_cycle;Signal;HPM_P1;HPM_P2
2021/01/28 00:02:05;;;;;;;3.22;1.70;;;;;;;;;;5013409;28;20046;-72
2021/01/28 00:04:31;;;;;;;3.35;1.83;;;;;;;;;;5014798;28;20075;-72
2021/01/28 00:06:56;;;;;;;2.08;1.30;;;;;;;;;;5013599;28;20037;-72
2021/01/28 00:09:22;;;;;;;3.15;1.55;;;;;;;;;;5013637;28;20033;-73
2021/01/28 00:11:47;;;;;;;2.40;1.45;;;;;;;;;;5014631;28;20324;-73
2021/01/28 00:14:13;;;;;;;2.45;1.30;;;;;;;;;;4980626;28;20034;-73
2021/01/28 00:16:38;;;;;;;2.60;1.27;;;;;;;;;;4996281;28;20047;-73
2021/01/28 00:19:04;;;;;;;2.00;1.10;;;;;;;;;;5012921;28;20038;-73
2021/01/28 00:21:29;;;;;;;2.53;1.55;;;;;;;;;;5013338;28;20510;-73
2021/01/28 00:23:54;;;;;;;2.78;1.50;;;;;;;;;;4996958;28;20380;-73
2021/01/28 00:26:20;;;;;;;2.40;1.35;;;;;;;;;;5013052;28;20126;-73
2021/01/28 00:28:45;;;;;;;2.83;1.30;;;;;;;;;;5009512;28;20042;-73
2021/01/28 00:31:11;;;;;;;1.88;1.20;;;;;;;;;;5003018;28;20038;-73
2021/01/28 00:33:36;;;;;;;2.25;1.30;;;;;;;;;;5013835;28;20476;-73
2021/01/28 00:36:04;;;;;;;3.25;2.10;;;;;;;;;;5014258;28;20034;-72
2021/01/28 00:38:31;;;;;;;2.47;1.45;;;;;;;;;;5013021;28;20052;-73
2021/01/28 00:40:57;;;;;;;3.13;1.58;;;;;;;;;;4996940;28;20030;-73
2021/01/28 00:43:23;;;;;;;2.50;1.27;;;;;;;;;;4980280;28;20496;-73
2021/01/28 00:45:48;;;;;;;2.15;1.20;;;;;;;;;;4996173;28;20076;-73
2021/01/28 00:48:14;;;;;;;2.55;1.65;;;;;;;;;;4992809;28;20033;-73
2021/01/28 00:50:39;;;;;;;1.83;1.20;;;;;;;;;;4992977;28;20508;-73
2021/01/28 00:53:05;;;;;;;1.58;1.20;;;;;;;;;;4985566;28;20396;-74
2021/01/28 00:55:30;;;;;;;2.20;1.20;;;;;;;;;;5012528;28;20034;-74
2021/01/28 00:57:55;;;;;;;2.45;1.30;;;;;;;;;;5012456;28;20033;-74
2021/01/28 01:00:26;;;;;;;2.92;1.33;;;;;;;;;;5012483;28;20083;-74
2021/01/28 01:02:51;;;;;;;1.75;1.17;;;;;;;;;;5011778;28;20038;-74
2021/01/28 01:05:18;;;;;;;1.75;1.00;;;;;;;;;;5012313;28;20465;-74
2021/01/28 01:07:44;;;;;;;1.60;1.10;;;;;;;;;;4995959;28;20030;-74
2021/01/28 01:10:11;;;;;;;2.22;1.35;;;;;;;;;;4980027;28;20092;-74
2021/01/28 01:12:36;;;;;;;2.83;1.00;;;;;;;;;;4996158;28;20030;-73
2021/01/28 01:15:04;;;;;;;2.00;1.10;;;;;;;;;;5011738;28;20034;-73
2021/01/28 01:17:30;;;;;;;2.45;1.10;;;;;;;;;;4995983;28;20038;-73
2021/01/28 01:19:55;;;;;;;1.85;1.05;;;;;;;;;;5011999;28;20446;-73
2021/01/28 01:22:21;;;;;;;2.83;1.08;;;;;;;;;;5012278;28;20030;-73
2021/01/28 01:24:46;;;;;;;1.73;0.98;;;;;;;;;;5013534;28;20034;-72
2021/01/28 01:27:11;;;;;;;2.70;1.13;;;;;;;;;;5011761;28;20034;-72
2021/01/28 01:29:37;;;;;;;2.15;1.27;;;;;;;;;;4998506;28;20038;-72
2021/01/28 01:32:02;;;;;;;1.73;0.80;;;;;;;;;;5007583;28;20498;-72
2021/01/28 01:34:28;;;;;;;1.25;0.75;;;;;;;;;;5013268;28;20045;-72
2021/01/28 01:36:53;;;;;;;1.60;0.90;;;;;;;;;;4995475;28;20113;-72
2021/01/28 01:39:18;;;;;;;2.28;1.30;;;;;;;;;;5011672;28;20034;-72
2021/01/28 01:41:44;;;;;;;1.25;0.70;;;;;;;;;;5012975;28;20038;-72
2021/01/28 01:44:09;;;;;;;2.20;1.02;;;;;;;;;;5011450;28;20109;-72
2021/01/28 01:46:35;;;;;;;1.48;0.80;;;;;;;;;;5012470;28;20439;-72
2021/01/28 01:49:03;;;;;;;1.48;0.90;;;;;;;;;;5011335;28;20153;-72
2021/01/28 01:51:31;;;;;;;2.00;0.73;;;;;;;;;;4995424;28;20121;-72
2021/01/28 01:54:06;;;;;;;1.30;0.70;;;;;;;;;;4979170;28;20034;-72
2021/01/28 01:56:34;;;;;;;1.50;0.60;;;;;;;;;;4995295;28;20377;-72
2021/01/28 01:59:10;;;;;;;0.98;0.55;;;;;;;;;;4978664;28;20088;-72
2021/01/28 02:01:38;;;;;;;1.45;0.80;;;;;;;;;;5010764;28;20041;-72
2021/01/28 02:04:03;;;;;;;1.23;0.68;;;;;;;;;;4995243;28;20037;-72
2021/01/28 02:06:38;;;;;;;1.50;0.70;;;;;;;;;;4995098;28;20022;-72
2021/01/28 02:09:04;;;;;;;1.23;0.60;;;;;;;;;;4996014;28;20049;-72
2021/01/28 02:11:29;;;;;;;1.20;0.50;;;;;;;;;;5012577;28;20128;-72
2021/01/28 02:13:56;;;;;;;1.55;0.63;;;;;;;;;;5010869;28;20038;-72
2021/01/28 02:16:23;;;;;;;1.00;0.50;;;;;;;;;;4994740;28;20105;-72
2021/01/28 02:18:48;;;;;;;1.63;0.65;;;;;;;;;;4995029;28;20030;-72
2021/01/28 02:21:16;;;;;;;1.45;0.65;;;;;;;;;;5010837;28;20389;-72
2021/01/28 02:24:10;;;;;;;1.25;0.60;;;;;;;;;;5011140;28;20040;-72
2021/01/28 02:26:36;;;;;;;1.40;0.50;;;;;;;;;;4986374;28;20046;-72
2021/01/28 02:29:01;;;;;;;1.08;0.52;;;;;;;;;;4990834;28;20132;-72
2021/01/28 02:31:27;;;;;;;0.93;0.73;;;;;;;;;;5001665;28;20056;-72
2021/01/28 02:33:56;;;;;;;0.90;0.50;;;;;;;;;;5010794;28;20033;-72
2021/01/28 02:36:36;;;;;;;0.95;0.43;;;;;;;;;;4994344;28;20105;-72
2021/01/28 02:39:04;;;;;;;1.38;0.55;;;;;;;;;;5010334;28;20392;-72
2021/01/28 02:41:32;;;;;;;0.70;0.30;;;;;;;;;;5011021;28;20492;-72
2021/01/28 02:43:57;;;;;;;1.33;0.70;;;;;;;;;;4994271;28;20030;-72
2021/01/28 02:46:23;;;;;;;1.02;0.35;;;;;;;;;;5010568;28;20045;-72
2021/01/28 02:48:49;;;;;;;0.80;0.40;;;;;;;;;;5010762;28;20073;-72
2021/01/28 02:51:15;;;;;;;0.80;0.35;;;;;;;;;;5010280;28;20391;-72
2021/01/28 02:53:45;;;;;;;1.25;0.63;;;;;;;;;;5010802;28;20140;-72
2021/01/28 02:56:10;;;;;;;0.93;0.40;;;;;;;;;;5010910;28;20546;-72
2021/01/28 02:58:36;;;;;;;0.77;0.22;;;;;;;;;;5009934;28;20041;-72
2021/01/28 03:01:02;;;;;;;1.20;0.50;;;;;;;;;;4993855;28;20032;-72
2021/01/28 03:03:28;;;;;;;1.20;0.50;;;;;;;;;;5010609;28;20049;-72
2021/01/28 03:05:53;;;;;;;0.93;0.40;;;;;;;;;;4977624;28;20480;-72
2021/01/28 03:08:19;;;;;;;1.25;0.43;;;;;;;;;;4994340;28;20041;-72
2021/01/28 03:10:45;;;;;;;0.93;0.50;;;;;;;;;;5010566;28;20029;-72
2021/01/28 03:13:11;;;;;;;1.15;0.50;;;;;;;;;;4993597;28;20077;-73
2021/01/28 03:15:36;;;;;;;1.08;0.45;;;;;;;;;;5010367;28;20384;-73
2021/01/28 03:18:02;;;;;;;0.80;0.40;;;;;;;;;;5010257;28;20034;-73
2021/01/28 03:20:27;;;;;;;0.93;0.30;;;;;;;;;;5010241;28;20045;-74
2021/01/28 03:22:52;;;;;;;0.32;0.20;;;;;;;;;;4993848;28;20125;-74
2021/01/28 03:25:19;;;;;;;0.88;0.30;;;;;;;;;;4994121;28;20034;-74
2021/01/28 03:27:45;;;;;;;0.70;0.30;;;;;;;;;;4977468;28;20045;-75
2021/01/28 03:30:22;;;;;;;1.85;0.30;;;;;;;;;;4990822;28;20133;-75
2021/01/28 03:32:47;;;;;;;0.93;0.30;;;;;;;;;;5008611;28;20249;-75
2021/01/28 03:35:13;;;;;;;0.70;0.30;;;;;;;;;;4993825;28;20022;-74
2021/01/28 03:37:38;;;;;;;0.40;0.20;;;;;;;;;;5010428;28;20045;-74
2021/01/28 03:40:05;;;;;;;0.73;0.30;;;;;;;;;;4977867;28;20488;-74
2021/01/28 03:42:31;;;;;;;0.63;0.30;;;;;;;;;;4994146;28;20118;-75
2021/01/28 03:44:56;;;;;;;0.40;0.30;;;;;;;;;;5009755;28;20049;-74
2021/01/28 03:47:21;;;;;;;0.40;0.30;;;;;;;;;;5011362;28;20445;-74
2021/01/28 03:49:47;;;;;;;0.52;0.28;;;;;;;;;;5010116;28;20041;-74
2021/01/28 03:52:12;;;;;;;0.80;0.25;;;;;;;;;;5012125;28;20049;-74
2021/01/28 03:54:38;;;;;;;0.98;0.20;;;;;;;;;;5013691;28;20034;-75
2021/01/28 03:57:04;;;;;;;0.68;0.30;;;;;;;;;;4980230;28;20037;-75
2021/01/28 03:59:30;;;;;;;0.95;0.30;;;;;;;;;;4997188;28;20030;-75
2021/01/28 04:01:55;;;;;;;0.65;0.22;;;;;;;;;;4997145;28;20127;-75
2021/01/28 04:04:21;;;;;;;0.50;0.20;;;;;;;;;;4981183;28;20484;-75
2021/01/28 04:06:46;;;;;;;0.60;0.28;;;;;;;;;;5014028;28;20034;-75
2021/01/28 04:09:11;;;;;;;0.50;0.40;;;;;;;;;;5013413;28;20034;-76
2021/01/28 04:11:37;;;;;;;1.00;0.35;;;;;;;;;;5014678;28;20431;-76
2021/01/28 04:14:02;;;;;;;0.40;0.20;;;;;;;;;;5014389;28;20041;-76
2021/01/28 04:16:28;;;;;;;1.20;0.57;;;;;;;;;;5013457;28;20374;-75
2021/01/28 04:18:53;;;;;;;1.58;0.25;;;;;;;;;;4996882;28;20054;-75
2021/01/28 04:21:18;;;;;;;0.32;0.20;;;;;;;;;;4997033;28;20037;-75
2021/01/28 04:23:44;;;;;;;0.40;0.25;;;;;;;;;;5014524;28;20084;-76
2021/01/28 04:26:09;;;;;;;0.55;0.30;;;;;;;;;;4996620;28;20065;-76
2021/01/28 04:28:34;;;;;;;0.88;0.20;;;;;;;;;;4996465;28;20388;-76
2021/01/28 04:31:00;;;;;;;0.70;0.30;;;;;;;;;;4996555;28;20048;-76
2021/01/28 04:33:25;;;;;;;0.98;0.20;;;;;;;;;;4996762;28;20038;-76
2021/01/28 04:35:51;;;;;;;0.50;0.20;;;;;;;;;;5013023;28;20034;-76
2021/01/28 04:38:16;;;;;;;0.40;0.20;;;;;;;;;;4996590;28;20033;-76
2021/01/28 04:40:42;;;;;;;0.73;0.20;;;;;;;;;;5012799;28;20037;-76
2021/01/28 04:43:29;;;;;;;0.60;0.28;;;;;;;;;;5012976;28;20065;-77
2021/01/28 04:45:57;;;;;;;0.40;0.10;;;;;;;;;;5012871;28;20040;-76
2021/01/28 04:48:23;;;;;;;0.45;0.20;;;;;;;;;;4980864;28;20057;-76
2021/01/28 04:50:48;;;;;;;0.65;0.20;;;;;;;;;;5012914;28;20041;-76
2021/01/28 04:53:21;;;;;;;0.38;0.20;;;;;;;;;;4996479;28;20030;-76
2021/01/28 04:55:49;;;;;;;0.35;0.25;;;;;;;;;;5012365;28;20065;-76
2021/01/28 04:58:14;;;;;;;0.30;0.10;;;;;;;;;;4996054;28;20123;-76
2021/01/28 05:00:40;;;;;;;0.35;0.20;;;;;;;;;;4996239;28;20504;-76
2021/01/28 05:03:15;;;;;;;0.30;0.10;;;;;;;;;;4995772;28;20077;-76
2021/01/28 05:05:40;;;;;;;0.88;0.20;;;;;;;;;;4996672;28;20518;-76
2021/01/28 05:08:05;;;;;;;0.22;0.10;;;;;;;;;;4996442;28;20038;-76
2021/01/28 05:10:31;;;;;;;0.50;0.10;;;;;;;;;;5012403;28;20088;-76
2021/01/28 05:12:56;;;;;;;0.28;0.10;;;;;;;;;;5013225;28;20026;-76
2021/01/28 05:15:24;;;;;;;1.05;0.10;;;;;;;;;;4995993;28;20034;-76
2021/01/28 05:18:09;;;;;;;0.77;0.20;;;;;;;;;;4996252;28;20456;-76
2021/01/28 05:20:35;;;;;;;0.80;0.10;;;;;;;;;;5013709;28;20053;-76
2021/01/28 05:23:03;;;;;;;0.40;0.10;;;;;;;;;;4996269;28;20038;-76
2021/01/28 05:25:31;;;;;;;1.08;0.20;;;;;;;;;;4995929;28;20049;-76
2021/01/28 05:27:57;;;;;;;0.40;0.20;;;;;;;;;;5013111;28;20084;-76
2021/01/28 05:30:42;;;;;;;0.25;0.10;;;;;;;;;;4995779;28;20045;-76
2021/01/28 05:33:40;;;;;;;0.63;0.20;;;;;;;;;;5012484;28;20034;-75
2021/01/28 05:36:21;;;;;;;0.60;0.20;;;;;;;;;;5011907;28;20349;-76
2021/01/28 05:38:52;;;;;;;0.82;0.20;;;;;;;;;;5011676;28;20116;-75
2021/01/28 05:41:35;;;;;;;0.30;0.15;;;;;;;;;;4980063;28;20030;-75
2021/01/28 05:44:22;;;;;;;0.75;0.20;;;;;;;;;;5011950;28;20100;-76
2021/01/28 05:47:06;;;;;;;0.90;0.03;;;;;;;;;;5012837;28;20021;-75
2021/01/28 05:49:33;;;;;;;0.70;0.20;;;;;;;;;;5012991;28;20127;-75
2021/01/28 05:52:12;;;;;;;0.30;0.10;;;;;;;;;;4995209;28;20037;-76
2021/01/28 05:54:38;;;;;;;0.43;0.10;;;;;;;;;;4995755;28;20041;-76
2021/01/28 05:57:07;;;;;;;0.50;0.20;;;;;;;;;;4995453;28;20041;-75
2021/01/28 05:59:49;;;;;;;0.10;0.10;;;;;;;;;;5011342;28;20080;-76
2021/01/28 06:02:32;;;;;;;0.57;0.10;;;;;;;;;;4995709;28;20037;-76
2021/01/28 06:05:29;;;;;;;0.52;0.15;;;;;;;;;;5011297;28;20165;-76
2021/01/28 06:08:12;;;;;;;0.40;0.10;;;;;;;;;;5012492;28;20109;-76
2021/01/28 06:11:07;;;;;;;0.20;0.10;;;;;;;;;;5012850;28;20025;-76
2021/01/28 06:13:51;;;;;;;0.45;0.22;;;;;;;;;;5010917;28;20041;-76
2021/01/28 06:16:46;;;;;;;0.40;0.05;;;;;;;;;;4996699;28;20034;-76
2021/01/28 06:19:27;;;;;;;0.40;0.10;;;;;;;;;;4991782;28;20030;-76
2021/01/28 06:22:02;;;;;;;0.57;0.20;;;;;;;;;;4992858;28;20428;-76
2021/01/28 06:24:45;;;;;;;0.20;0.10;;;;;;;;;;4991647;28;20112;-76
2021/01/28 06:27:29;;;;;;;;;;;;;;;;;;4991616;28;20416;-76
2021/01/28 06:30:19;;;;;;;0.35;0.20;;;;;;;;;;5000853;28;19910;-76
2021/01/28 06:33:15;;;;;;;0.85;0.43;;;;;;;;;;4992752;28;20026;-75
2021/01/28 06:36:10;;;;;;;0.63;0.30;;;;;;;;;;4992035;28;20034;-76
2021/01/28 06:38:45;;;;;;;0.20;0.10;;;;;;;;;;5001119;28;20507;-76
2021/01/28 06:41:14;;;;;;;0.40;0.10;;;;;;;;;;5011113;28;20044;-76
2021/01/28 06:44:14;;;;;;;0.20;0.10;;;;;;;;;;4994469;28;20522;-76
2021/01/28 06:47:01;;;;;;;0.55;0.10;;;;;;;;;;4980437;28;20039;-76
2021/01/28 06:49:50;;;;;;;0.00;0.00;;;;;;;;;;4992738;28;20114;-77
2021/01/28 06:52:34;;;;;;;0.10;0.00;;;;;;;;;;4993220;28;20113;-76
2021/01/28 06:55:04;;;;;;;0.20;0.10;;;;;;;;;;5012113;28;20033;-76
2021/01/28 06:57:44;;;;;;;0.35;0.10;;;;;;;;;;5010492;28;20053;-75
2021/01/28 07:00:19;;;;;;;0.13;0.05;;;;;;;;;;5010590;28;20036;-75
2021/01/28 07:02:50;;;;;;;0.68;0.20;;;;;;;;;;4995171;28;20041;-75
2021/01/28 07:05:19;;;;;;;2.00;0.20;;;;;;;;;;5011334;28;20555;-75
2021/01/28 07:07:51;;;;;;;1.48;0.10;;;;;;;;;;5012045;28;20061;-76
2021/01/28 07:10:24;;;;;;;1.63;0.32;;;;;;;;;;4993014;28;20033;-75
2021/01/28 07:12:50;;;;;;;2.90;0.30;;;;;;;;;;4992583;28;20399;-75
2021/01/28 07:15:16;;;;;;;14.43;0.93;;;;;;;;;;4992113;28;20436;-76
2021/01/28 07:17:44;;;;;;;4.15;0.30;;;;;;;;;;4994014;28;20068;-75
2021/01/28 07:20:28;;;;;;;1.55;0.20;;;;;;;;;;5010378;28;20072;-75
2021/01/28 07:22:53;;;;;;;2.13;0.10;;;;;;;;;;5010552;28;20026;-75
2021/01/28 07:25:28;;;;;;;2.47;0.28;;;;;;;;;;5010299;28;20044;-76
2021/01/28 07:28:03;;;;;;;0.95;0.28;;;;;;;;;;5014665;28;20033;-76
2021/01/28 07:30:40;;;;;;;4.03;0.20;;;;;;;;;;4994750;28;20037;-76
2021/01/28 07:33:06;;;;;;;1.63;0.20;;;;;;;;;;4995718;28;20026;-75
2021/01/28 07:35:41;;;;;;;0.40;0.20;;;;;;;;;;4978215;28;20045;-75
2021/01/28 07:38:28;;;;;;;2.17;0.32;;;;;;;;;;5007160;28;20060;-75
2021/01/28 07:41:09;;;;;;;1.77;0.40;;;;;;;;;;5015479;28;20113;-75
2021/01/28 07:43:39;;;;;;;1.33;0.20;;;;;;;;;;5015307;28;20488;-75
2021/01/28 07:46:26;;;;;;;0.57;0.20;;;;;;;;;;5013950;28;20038;-76
2021/01/28 07:49:11;;;;;;;0.75;0.20;;;;;;;;;;5014655;28;20049;-75
2021/01/28 07:51:44;;;;;;;1.50;0.20;;;;;;;;;;5015444;28;20037;-76
2021/01/28 07:54:22;;;;;;;2.28;0.20;;;;;;;;;;4998506;28;20038;-76
2021/01/28 07:56:48;;;;;;;2.17;0.25;;;;;;;;;;5015108;28;20113;-75
2021/01/28 07:59:37;;;;;;;0.98;0.28;;;;;;;;;;4997215;28;20025;-75
2021/01/28 08:02:29;;;;;;;2.97;0.30;;;;;;;;;;5013900;28;20480;-75
2021/01/28 08:05:03;;;;;;;1.45;0.20;;;;;;;;;;5013430;28;20484;-75
2021/01/28 08:07:43;;;;;;;3.72;0.50;;;;;;;;;;5014843;28;20038;-76
2021/01/28 08:10:32;;;;;;;1.60;0.20;;;;;;;;;;5013576;28;20034;-76
2021/01/28 08:12:59;;;;;;;5.70;3.28;;;;;;;;;;4998633;28;20037;-76
2021/01/28 08:15:59;;;;;;;3.22;1.77;;;;;;;;;;5013497;28;20145;-76
2021/01/28 08:18:29;;;;;;;5.30;1.30;;;;;;;;;;5013054;28;20103;-76
2021/01/28 08:21:12;;;;;;;2.85;1.00;;;;;;;;;;5013519;28;20480;-76
2021/01/28 08:23:39;;;;;;;4.30;1.08;;;;;;;;;;4997686;28;20033;-76
2021/01/28 08:26:07;;;;;;;3.05;1.33;;;;;;;;;;4997301;28;20109;-76
2021/01/28 08:28:34;;;;;;;3.22;0.88;;;;;;;;;;4996904;28;20065;-76
2021/01/28 08:31:17;;;;;;;2.40;0.80;;;;;;;;;;5013230;28;20076;-79
2021/01/28 08:33:44;;;;;;;6.95;0.88;;;;;;;;;;4982701;28;20030;-79
2021/01/28 08:36:51;;;;;;;2.83;1.10;;;;;;;;;;4996842;28;20030;-79
2021/01/28 08:39:38;;;;;;;56.67;42.50;;;;;;;;;;4973698;28;20052;-79
2021/01/28 08:42:10;;;;;;;30.65;22.20;;;;;;;;;;4963410;28;20496;-81
2021/01/28 08:44:36;;;;;;;28.42;19.23;;;;;;;;;;4977885;28;20050;-80
2021/01/28 08:47:11;;;;;;;22.65;16.45;;;;;;;;;;5012609;28;20139;-80
2021/01/28 08:49:36;;;;;;;19.88;14.60;;;;;;;;;;5012959;28;20038;-80
2021/01/28 08:52:13;;;;;;;18.25;14.10;;;;;;;;;;4996535;28;20036;-81
2021/01/28 08:54:40;;;;;;;20.27;13.30;;;;;;;;;;4965332;28;20037;-80
2021/01/28 08:57:07;;;;;;;19.45;13.73;;;;;;;;;;4980448;28;20038;-80
2021/01/28 08:59:44;;;;;;;19.70;13.38;;;;;;;;;;4963818;28;20447;-80
2021/01/28 09:02:14;;;;;;;15.13;11.32;;;;;;;;;;4964086;28;20396;-79
2021/01/28 09:04:41;;;;;;;17.40;12.10;;;;;;;;;;4964131;28;20069;-79
2021/01/28 09:07:06;;;;;;;13.35;10.07;;;;;;;;;;4996380;28;20392;-79
2021/01/28 09:09:34;;;;;;;13.57;9.88;;;;;;;;;;4996039;28;20030;-79
2021/01/28 09:12:23;;;;;;;15.82;10.70;;;;;;;;;;5012434;28;20033;-79
2021/01/28 09:14:49;;;;;;;16.30;10.70;;;;;;;;;;5012499;28;20040;-78
2021/01/28 09:17:27;;;;;;;13.48;8.80;;;;;;;;;;4992272;28;20030;-78
2021/01/28 09:19:57;;;;;;;15.48;9.35;;;;;;;;;;4960737;28;20106;-77
2021/01/28 09:22:32;;;;;;;19.95;9.10;;;;;;;;;;4976959;28;20141;-77
2021/01/28 09:24:58;;;;;;;16.77;9.27;;;;;;;;;;4992687;28;20038;-77
2021/01/28 09:27:37;;;;;;;13.23;8.45;;;;;;;;;;4976308;28;20058;-78
2021/01/28 09:30:09;;;;;;;16.52;7.75;;;;;;;;;;4992199;28;20061;-78
2021/01/28 09:32:35;;;;;;;24.33;8.77;;;;;;;;;;4992335;28;20030;-78
2021/01/28 09:35:16;;;;;;;19.08;8.18;;;;;;;;;;4976464;28;20555;-78
2021/01/28 09:37:47;;;;;;;31.48;9.15;;;;;;;;;;4996872;28;20026;-77
2021/01/28 09:40:17;;;;;;;19.70;7.72;;;;;;;;;;4996199;28;20030;-78
2021/01/28 09:42:42;;;;;;;13.90;7.65;;;;;;;;;;5011836;28;20033;-77
2021/01/28 09:45:16;;;;;;;18.98;8.45;;;;;;;;;;4995062;28;20101;-77
2021/01/28 09:47:50;;;;;;;19.48;7.45;;;;;;;;;;4996238;28;20030;-77
2021/01/28 09:50:15;;;;;;;12.23;6.80;;;;;;;;;;4994990;28;20061;-77
2021/01/28 09:52:46;;;;;;;16.73;6.78;;;;;;;;;;4995384;28;20063;-77
2021/01/28 09:55:18;;;;;;;12.82;6.93;;;;;;;;;;5011391;28;20042;-76
2021/01/28 09:57:43;;;;;;;15.75;7.10;;;;;;;;;;4995634;28;20030;-76
2021/01/28 10:00:14;;;;;;;15.95;6.07;;;;;;;;;;4978635;28;20096;-76
2021/01/28 10:02:49;;;;;;;14.52;6.03;;;;;;;;;;4979452;28;20038;-76
2021/01/28 10:05:22;;;;;;;8.77;5.18;;;;;;;;;;5011342;28;20029;-77
2021/01/28 10:07:47;;;;;;;;;;;;;;;;;;4996325;28;20038;-76
2021/01/28 10:10:14;;;;;;;7.80;5.03;;;;;;;;;;4995709;28;19909;-76
2021/01/28 10:12:39;;;;;;;14.52;4.78;;;;;;;;;;4991495;28;20113;-76
2021/01/28 10:15:05;;;;;;;7.90;4.25;;;;;;;;;;4991096;28;20060;-76
2021/01/28 10:17:31;;;;;;;14.18;4.30;;;;;;;;;;5000985;28;20133;-78
2021/01/28 10:19:56;;;;;;;13.40;5.70;;;;;;;;;;4995056;28;20491;-80
2021/01/28 10:22:22;;;;;;;13.48;6.72;;;;;;;;;;4994842;28;20040;-80
2021/01/28 10:24:48;;;;;;;13.60;7.28;;;;;;;;;;4994955;28;20026;-79
2021/01/28 10:27:13;;;;;;;15.45;9.27;;;;;;;;;;4978348;28;20037;-78
2021/01/28 10:29:41;;;;;;;16.90;8.13;;;;;;;;;;4994444;28;20034;-78
2021/01/28 10:32:07;;;;;;;16.83;8.75;;;;;;;;;;4978928;28;20101;-79
2021/01/28 10:34:33;;;;;;;23.67;9.55;;;;;;;;;;4994825;28;20030;-78
2021/01/28 10:36:58;;;;;;;13.85;7.00;;;;;;;;;;4978736;28;20026;-78
2021/01/28 10:39:24;;;;;;;13.65;7.82;;;;;;;;;;4994459;28;20030;-77
2021/01/28 10:41:49;;;;;;;13.25;7.38;;;;;;;;;;4978380;28;20395;-77
2021/01/28 10:44:15;;;;;;;11.55;7.13;;;;;;;;;;5010407;28;20037;-77
2021/01/28 10:46:42;;;;;;;14.27;7.28;;;;;;;;;;4975009;28;20062;-77
2021/01/28 10:49:08;;;;;;;13.13;7.38;;;;;;;;;;4991360;28;20043;-77
2021/01/28 10:51:33;;;;;;;14.48;7.30;;;;;;;;;;4959211;28;20030;-77
2021/01/28 10:53:59;;;;;;;12.95;7.00;;;;;;;;;;4991110;28;20042;-77
2021/01/28 10:56:24;;;;;;;14.07;7.32;;;;;;;;;;4993942;28;20415;-77
2021/01/28 10:58:50;;;;;;;12.07;6.30;;;;;;;;;;4994289;28;20030;-78
2021/01/28 11:01:15;;;;;;;13.98;6.90;;;;;;;;;;4994151;28;20030;-79
2021/01/28 11:03:40;;;;;;;10.77;7.05;;;;;;;;;;4994243;28;20041;-79
2021/01/28 11:06:06;;;;;;;13.07;6.22;;;;;;;;;;4994238;28;20038;-79
2021/01/28 11:08:31;;;;;;;13.63;6.25;;;;;;;;;;5010824;28;20068;-78
2021/01/28 11:10:57;;;;;;;14.88;6.60;;;;;;;;;;4977603;28;20104;-78
2021/01/28 11:13:22;;;;;;;12.23;5.68;;;;;;;;;;4994605;28;20088;-77
2021/01/28 11:15:48;;;;;;;13.27;6.65;;;;;;;;;;5010754;28;20037;-77
2021/01/28 11:18:13;;;;;;;13.43;6.55;;;;;;;;;;4978036;28;20099;-77
2021/01/28 11:20:39;;;;;;;11.48;5.75;;;;;;;;;;4994439;28;20041;-77
2021/01/28 11:23:04;;;;;;;12.60;5.63;;;;;;;;;;4993957;28;20176;-77
2021/01/28 11:25:30;;;;;;;10.98;5.18;;;;;;;;;;4977748;28;20038;-77
2021/01/28 11:27:55;;;;;;;9.30;5.75;;;;;;;;;;5010284;28;20040;-78
2021/01/28 11:30:23;;;;;;;11.18;6.00;;;;;;;;;;4993837;28;20399;-77
2021/01/28 11:32:48;;;;;;;11.45;5.40;;;;;;;;;;4977700;28;20400;-78
2021/01/28 11:35:15;;;;;;;10.82;4.93;;;;;;;;;;4993899;28;20053;-77
2021/01/28 11:37:45;;;;;;;8.75;4.70;;;;;;;;;;4994155;28;20026;-77
2021/01/28 11:40:10;;;;;;;9.40;4.32;;;;;;;;;;4994262;28;20396;-77
2021/01/28 11:42:36;;;;;;;10.15;4.72;;;;;;;;;;5010319;28;20034;-77
2021/01/28 11:45:02;;;;;;;9.15;4.00;;;;;;;;;;4993622;28;20030;-77
2021/01/28 11:47:27;;;;;;;7.65;3.90;;;;;;;;;;5011662;28;20034;-77
2021/01/28 11:49:53;;;;;;;7.85;4.10;;;;;;;;;;5010338;28;20036;-76
2021/01/28 11:52:18;;;;;;;7.85;4.93;;;;;;;;;;4993882;28;20048;-76
2021/01/28 11:54:44;;;;;;;7.75;4.20;;;;;;;;;;5009192;28;20109;-77
2021/01/28 11:57:09;;;;;;;6.85;4.15;;;;;;;;;;4993627;28;20042;-72
2021/01/28 11:59:34;;;;;;;6.20;3.60;;;;;;;;;;4993900;28;20045;-73
2021/01/28 12:02:00;;;;;;;10.43;4.68;;;;;;;;;;5010987;28;20369;-72
2021/01/28 12:04:25;;;;;;;9.30;4.72;;;;;;;;;;5011617;28;20121;-72
2021/01/28 12:06:51;;;;;;;6.32;3.42;;;;;;;;;;5009985;28;20038;-72
2021/01/28 12:09:16;;;;;;;6.50;2.80;;;;;;;;;;5010973;28;20042;-72
2021/01/28 12:11:41;;;;;;;10.00;3.80;;;;;;;;;;5009960;28;20472;-75
2021/01/28 12:14:07;;;;;;;7.10;4.05;;;;;;;;;;4964568;28;20120;-75
2021/01/28 12:16:32;;;;;;;5.00;2.70;;;;;;;;;;5013368;28;20041;-75
2021/01/28 12:19:00;;;;;;;6.35;2.75;;;;;;;;;;5013539;28;20062;-75
2021/01/28 12:21:27;;;;;;;6.53;3.03;;;;;;;;;;5013372;28;20368;-75
2021/01/28 12:23:52;;;;;;;6.53;3.00;;;;;;;;;;5010535;28;20033;-75
2021/01/28 12:26:20;;;;;;;9.88;3.05;;;;;;;;;;5016467;28;20051;-76
2021/01/28 12:28:45;;;;;;;5.75;3.13;;;;;;;;;;5000914;28;20034;-76
2021/01/28 12:31:13;;;;;;;7.68;2.80;;;;;;;;;;4996714;28;20509;-76
2021/01/28 12:33:39;;;;;;;7.65;3.15;;;;;;;;;;4998621;28;20029;-76
2021/01/28 12:36:06;;;;;;;7.05;3.00;;;;;;;;;;5013105;28;20065;-76
2021/01/28 12:38:31;;;;;;;4.47;2.63;;;;;;;;;;5023234;28;20041;-76
2021/01/28 12:40:56;;;;;;;6.95;2.85;;;;;;;;;;5014155;28;20046;-76
2021/01/28 12:43:22;;;;;;;4.68;2.50;;;;;;;;;;4980070;28;20065;-76
2021/01/28 12:45:47;;;;;;;4.70;2.40;;;;;;;;;;4993348;28;20038;-76
2021/01/28 12:48:12;;;;;;;4.40;2.25;;;;;;;;;;4997929;28;20030;-76
2021/01/28 12:50:38;;;;;;;5.68;2.28;;;;;;;;;;5024895;28;20042;-77
2021/01/28 12:53:03;;;;;;;7.07;2.42;;;;;;;;;;4979429;28;20037;-77
2021/01/28 12:55:29;;;;;;;7.28;2.53;;;;;;;;;;5012561;28;20411;-76
2021/01/28 12:57:54;;;;;;;9.50;2.95;;;;;;;;;;4996518;28;20476;-76
2021/01/28 13:00:21;;;;;;;5.45;2.42;;;;;;;;;;4980098;28;20038;-76
2021/01/28 13:02:46;;;;;;;5.20;2.15;;;;;;;;;;5001033;28;20112;-78
2021/01/28 13:05:12;;;;;;;5.15;2.35;;;;;;;;;;4981587;28;20101;-77
2021/01/28 13:07:38;;;;;;;7.90;2.67;;;;;;;;;;5007763;28;20061;-78
2021/01/28 13:10:04;;;;;;;12.48;2.80;;;;;;;;;;4996260;28;20047;-79
2021/01/28 13:12:30;;;;;;;8.10;2.35;;;;;;;;;;4999887;28;20037;-78
2021/01/28 13:14:56;;;;;;;6.05;1.75;;;;;;;;;;5013007;28;20058;-78
2021/01/28 13:17:21;;;;;;;6.03;2.30;;;;;;;;;;5013653;28;20399;-77
2021/01/28 13:19:47;;;;;;;5.28;2.05;;;;;;;;;;5013480;28;20107;-77
2021/01/28 13:22:12;;;;;;;4.97;2.10;;;;;;;;;;4995685;28;20097;-76
2021/01/28 13:24:38;;;;;;;8.45;2.47;;;;;;;;;;5012853;28;20034;-76
2021/01/28 13:27:05;;;;;;;6.22;2.92;;;;;;;;;;4995644;28;20058;-74
2021/01/28 13:29:31;;;;;;;8.30;2.65;;;;;;;;;;4995658;28;20076;-75
2021/01/28 13:31:57;;;;;;;6.75;2.88;;;;;;;;;;5026323;28;20037;-75
2021/01/28 13:34:22;;;;;;;7.78;2.85;;;;;;;;;;5031475;28;20124;-76
2021/01/28 13:36:47;;;;;;;7.53;3.00;;;;;;;;;;5031838;28;20364;-76
2021/01/28 13:39:13;;;;;;;29.73;4.15;;;;;;;;;;4995123;28;20034;-76
2021/01/28 13:41:38;;;;;;;7.57;3.15;;;;;;;;;;4995378;28;20045;-74
2021/01/28 13:44:04;;;;;;;7.60;2.58;;;;;;;;;;4995590;28;20045;-73
2021/01/28 13:46:29;;;;;;;6.15;2.35;;;;;;;;;;5019923;28;20045;-73
2021/01/28 13:48:54;;;;;;;10.27;3.22;;;;;;;;;;5013575;28;20112;-73
2021/01/28 13:51:20;;;;;;;6.85;2.80;;;;;;;;;;4996216;28;20034;-73
2021/01/28 13:53:45;;;;;;;4.40;1.92;;;;;;;;;;4995237;28;20049;-73
2021/01/28 13:56:11;;;;;;;7.10;2.08;;;;;;;;;;5019708;28;20577;-74
2021/01/28 13:58:36;;;;;;;4.47;2.05;;;;;;;;;;5016075;28;20097;-74
2021/01/28 14:01:02;;;;;;;3.60;1.70;;;;;;;;;;4994852;28;20036;-74
2021/01/28 14:03:27;;;;;;;3.88;2.10;;;;;;;;;;4994473;28;20038;-74
2021/01/28 14:05:53;;;;;;;4.72;2.10;;;;;;;;;;4994200;28;20033;-74
2021/01/28 14:08:20;;;;;;;6.05;1.85;;;;;;;;;;5013142;28;20062;-74
2021/01/28 14:10:46;;;;;;;3.72;1.50;;;;;;;;;;5015375;28;20042;-74
2021/01/28 14:13:11;;;;;;;4.78;2.13;;;;;;;;;;5011255;28;20042;-75
2021/01/28 14:15:38;;;;;;;4.70;2.03;;;;;;;;;;4978510;28;20030;-75
2021/01/28 14:18:04;;;;;;;5.68;2.42;;;;;;;;;;4995457;28;20044;-76
2021/01/28 14:20:29;;;;;;;4.43;1.40;;;;;;;;;;4994575;28;20041;-76
2021/01/28 14:22:55;;;;;;;4.43;1.60;;;;;;;;;;4978614;28;20113;-76
2021/01/28 14:25:23;;;;;;;4.30;1.15;;;;;;;;;;4994502;28;20440;-76
2021/01/28 14:27:48;;;;;;;5.78;2.35;;;;;;;;;;5006097;28;20049;-75
2021/01/28 14:30:15;;;;;;;3.63;1.40;;;;;;;;;;5011808;28;20542;-74
2021/01/28 14:32:41;;;;;;;3.65;1.35;;;;;;;;;;4978431;28;20032;-74
2021/01/28 14:35:07;;;;;;;4.75;1.40;;;;;;;;;;4993944;28;20391;-74
2021/01/28 14:37:32;;;;;;;4.55;1.13;;;;;;;;;;5012859;28;20104;-74
2021/01/28 14:39:58;;;;;;;6.05;1.30;;;;;;;;;;5012220;28;20399;-74
2021/01/28 14:42:23;;;;;;;8.30;1.60;;;;;;;;;;5010711;28;20033;-73
2021/01/28 14:44:49;;;;;;;2.05;0.90;;;;;;;;;;5010530;28;20029;-73
2021/01/28 14:47:14;;;;;;;4.75;1.30;;;;;;;;;;5011259;28;20032;-73
2021/01/28 14:49:40;;;;;;;4.70;2.00;;;;;;;;;;5010198;28;20034;-73
2021/01/28 14:52:05;;;;;;;7.00;1.10;;;;;;;;;;5027887;28;20041;-72
2021/01/28 14:54:30;;;;;;;2.78;0.85;;;;;;;;;;5007668;28;20084;-72